ADDS METAR Data INFO
IDs: Format: Raw Decoded Include TAF

Data at: 0028 UTC 23 Oct 2017

PAKI 222356Z AUTO 13005KT 10SM CLR M01/M03 A2940 RMK AO2 SLP959 60000 T10061033 10028 21056 51007 FZRANO
PAKI 222256Z AUTO 13009KT 10SM FEW046 00/M03 A2940 RMK AO2 UPE16SNB02E12 SLP957 P0000 T00001033 FZRANO
PAKI 222156Z AUTO 00000KT 9SM UP BKN034 OVC044 M01/M02 A2940 RMK AO2 UPB52SNB33E52 SLP957 P0000 T10061022 FZRANO
PAKI 222056Z AUTO 02003KT 10SM FEW026 OVC038 M01/M03 A2938 RMK AO2 RAB45E55 SLP952 P0000 60000 T10061033 53016 FZRANO
PAKI 221956Z AUTO 36003KT 10SM BKN038 BKN049 OVC070 00/M01 A2936 RMK AO2 SNE29 SLP946 P0000 T00001011 FZRANO
PAKI 221856Z AUTO 15003KT 9SM -SN SCT044 OVC055 M03/M04 A2935 RMK AO2 SNB37 SLP941 P0000 T10331039 FZRANO
PAKI 221756Z AUTO 17004KT 10SM FEW075 BKN095 BKN110 M06/M06 A2933 RMK AO2 SLP936 T10561061 11039 21067 51015 FZRANO
PAKI 221656Z AUTO 13003KT 10SM CLR M06/M07 A2932 RMK AO2 SLP931 T10611067 FZRANO
PAKI 221556Z AUTO 00000KT 10SM CLR M06/M07 A2931 RMK AO2 SLP929 T10611067 FZRANO
PAKI 221456Z AUTO 12007KT 10SM FEW110 M05/M06 A2929 RMK AO2 SLP921 T10501056 51008 FZRANO
PAKI 221356Z AUTO 11005KT 10SM BKN090 BKN120 M07/M07 A2929 RMK AO2 SLP919 T10671072 FZRANO
PAKI 221256Z AUTO 13003KT 6SM BR CLR M05/M06 A2927 RMK AO2 SLP915 T10501056 FZRANO
PAKI 221156Z AUTO 14004KT 10SM FEW048 BKN060 M04/M05 A2927 RMK AO2 SLP913 T10441050 11033 21061 53003 FZRANO
PAKI 221056Z AUTO 00000KT 8SM CLR M03/M04 A2926 RMK AO2 SLP912 T10331039 FZRANO
PAKI 221027Z AUTO 00000KT 5SM BR FEW002 M04/M05 A2926 RMK AO2 FZRANO
PAKI 221013Z AUTO 15003KT 2SM BR FEW002 M04/M04 A2926 RMK AO2 VIS 1 1/4V3 FZRANO
PAKI 220956Z AUTO 00000KT 1SM BR VV002 M06/M07 A2926 RMK AO2 VIS 3/4V1 3/4 SLP910 T10561067 FZRANO
PAKI 220943Z AUTO 00000KT 1 1/4SM BR FEW002 M06/M06 A2926 RMK AO2 FZRANO
PAKI 220934Z AUTO 00000KT 1SM BR VV002 M06/M06 A2926 RMK AO2 FZRANO
PAKI 220917Z AUTO 27004KT 1/2SM FZFG VV002 M06/M06 A2926 RMK AO2 FZRANO
PAKI 220914Z AUTO 27004KT 1SM BR VV002 M06/M06 A2926 RMK AO2 VIS 1/2V5 FZRANO
PAKI 220911Z AUTO 27003KT 1 3/4SM BR CLR M06/M06 A2926 RMK AO2 VIS 3/4V5 FZRANO
PAKI 220656Z AUTO 35005KT 10SM CLR M04/M05 A2925 RMK AO2 SLP906 T10441050 FZRANO
PAKI 220619Z AUTO 33005KT 4SM BR CLR M05/M06 A2924 RMK AO2 FZRANO
PAKI 220615Z AUTO 32004KT 1 3/4SM BR CLR M05/M06 A2924 RMK AO2 VIS 3/4V5 FZRANO
PAKI 220556Z AUTO 02003KT 10SM CLR M04/M04 A2923 RMK AO2 SLP902 60000 T10391044 10000 21044 51015 FZRANO
PAKI 220456Z AUTO 04005KT 10SM SCT021 BKN033 M03/M04 A2922 RMK AO2 SNE41 SLP898 P0000 T10331044 FZRANO
PAKI 220429Z AUTO 02006KT 9SM -SN BKN021 BKN037 M03/M04 A2922 RMK AO2 P0000 FZRANO
PAKI 220359Z AUTO 07008KT 7SM -SN FEW009 SCT024 OVC035 M02/M04 A2920 RMK AO2 P0000 FZRANO
PAKI 220356Z AUTO 08008KT 5SM -SN BR SCT016 BKN025 OVC033 M02/M04 A2920 RMK AO2 SLP891 P0000 T10221039 FZRANO
PAKI 220341Z AUTO 09008KT 2SM -SN BR FEW006 SCT016 OVC024 M02/M04 A2920 RMK AO2 VIS 1 1/4V2 1/2 P0000 FZRANO
PAKI 220331Z AUTO 10012KT 1 3/4SM -SN BR SCT016 OVC024 M02/M03 A2919 RMK AO2 P0000 FZRANO
PAKI 220322Z AUTO 11010KT 4SM -SN BR FEW018 OVC024 M02/M03 A2919 RMK AO2 P0000 FZRANO
PAKI 220309Z AUTO 12009KT 2 1/2SM -SN BR FEW018 BKN026 OVC060 M02/M03 A2919 RMK AO2 P0000 FZRANO
PAKI 220256Z AUTO 14007KT 9SM -SN FEW023 SCT036 BKN060 M02/M04 A2919 RMK AO2 SNB27 SLP887 P0000 60000 T10171039 58013 FZRANO
PAKI 220156Z AUTO 27009KT 10SM SCT023 BKN032 BKN041 M01/M05 A2921 RMK AO2 SNB05E36 SLP893 P0000 T10111050 FZRANO
PAKI 220056Z AUTO 26008KT 10SM FEW050 M01/M06 A2921 RMK AO2 SNB10E24 SLP894 P0000 T10111061 FZRANO
PAKI 212356Z AUTO 26008KT 10SM FEW075 00/M06 A2923 RMK AO2 SLP900 60000 T00001056 10017 21050 58012 FZRANO
PAKI 212256Z AUTO 25009KT 10SM CLR 01/M04 A2924 RMK AO2 SNE2159 SLP904 P0000 T00111044 FZRANO
PAKI 212156Z AUTO 21005KT 9SM -SN FEW023 SCT036 BKN065 M02/M04 A2925 RMK AO2 RAB21E30UPB30E45SNB31E43B45 SLP907 P0000 T10171044 FZRANO
PAKI 212056Z AUTO 00000KT 10SM FEW042 SCT060 01/M03 A2926 RMK AO2 UPB10E12B35E36RAB36E51SNE10 SLP911 P0000 60000 T00061033 50000 FZRANO
PAKI 212003Z AUTO 34004KT 5SM -SN BR FEW013 SCT026 BKN033 M02/M04 A2927 RMK AO2 P0000 FZRANO
PAKI 211956Z AUTO 36003KT 2SM -SN BR SCT024 BKN033 BKN047 M01/M03 A2927 RMK AO2 VIS 3/4V5 SNB41 SLP914 P0000 T10111033 FZRANO
PAKI 211856Z AUTO 25003KT 10SM CLR M05/M06 A2926 RMK AO2 SLP912 T10501061 FZRANO
PAKI 211756Z AUTO 31007KT 10SM CLR M04/M05 A2926 RMK AO2 SNE1657 SLP911 60000 T10391050 11022 21056 53001 FZRANO
PAKI 211656Z AUTO 31003KT 9SM -SN FEW010 SCT044 BKN060 M03/M04 A2926 RMK AO2 SNB17 SLP911 P0000 T10281039 FZRANO
PAKI 211643Z AUTO 31005KT 7SM -SN FEW008 BKN032 OVC050 M03/M04 A2926 RMK AO2 SNB17 P0000 FZRANO
PAKI 211636Z AUTO 33005KT 2 1/2SM -SN BR SCT008 BKN032 OVC040 M03/M03 A2926 RMK AO2 VIS 1 1/4V5 SNB17 P0000 FZRANO
PAKI 211628Z AUTO 31009KT 1 1/2SM -SN BR SCT008 BKN021 BKN032 M02/M03 A2926 RMK AO2 SNB17 P0000 FZRANO
PAKI 211625Z AUTO 30010KT 2SM -SN BR FEW008 BKN032 OVC048 M03/M04 A2926 RMK AO2 SNB17 P0000 FZRANO
PAKI 211556Z AUTO 19006KT 10SM BKN030 BKN034 BKN048 M03/M04 A2925 RMK AO2 SNE25 SLP908 P0000 T10281039 FZRANO
PAKI 211522Z AUTO 20006KT 9SM -SN FEW025 BKN030 BKN035 M03/M04 A2925 RMK AO2 P0000 FZRANO
PAKI 211456Z AUTO 20003KT 7SM -SN BKN028 BKN047 M04/M04 A2926 RMK AO2 SNB32 SLP910 P0000 60000 T10391044 56007 FZRANO
PAKI 211356Z AUTO 22006KT 10SM BKN095 M06/M07 A2926 RMK AO2 SLP911 T10561067 FZRANO
PAKI 211256Z AUTO 22005KT 10SM CLR M04/M06 A2927 RMK AO2 SNE05 SLP914 P0000 T10441056 FZRANO